Time;durP1;ratioP1;P1;durP2;ratioP2;P2;SDS_P1;SDS_P2;PMS_P1;PMS_P2;Temp;Humidity;BMP_temperature;BMP_pressure;BME280_temperature;BME280_humidity;BME280_pressure;Samples;Min_cycle;Max_cycle;Signal;HPM_P1;HPM_P2
2023/10/20 00:00:43;;;;;;;;;;;17.20;1.00;;;;;;5053065;28;19936;-59
2023/10/20 00:03:10;;;;;;;;;;;17.10;1.00;;;;;;5053981;28;19932;-59
2023/10/20 00:05:37;;;;;;;;;;;17.10;1.00;;;;;;5054081;28;19929;-59
2023/10/20 00:08:04;;;;;;;;;;;17.10;1.00;;;;;;5054078;28;19932;-59
2023/10/20 00:10:34;;;;;;;;;;;17.10;1.00;;;;;;5052682;28;19932;-57
2023/10/20 00:13:02;;;;;;;;;;;17.10;1.00;;;;;;5053726;28;19928;-59
2023/10/20 00:15:29;;;;;;;;;;;17.10;1.00;;;;;;5053923;28;20031;-59
2023/10/20 00:17:56;;;;;;;;;;;17.10;1.00;;;;;;5053708;28;19969;-59
2023/10/20 00:20:23;;;;;;;;;;;17.10;1.00;;;;;;5052652;28;20013;-59
2023/10/20 00:22:49;;;;;;;;;;;17.10;1.00;;;;;;5053550;28;19924;-59
2023/10/20 00:25:17;;;;;;;;;;;17.10;1.00;;;;;;5053756;28;19931;-59
2023/10/20 00:27:43;;;;;;;;;;;17.10;1.00;;;;;;5053628;28;20360;-57
2023/10/20 00:30:11;;;;;;;;;;;17.10;1.00;;;;;;5033396;28;19924;-59
2023/10/20 00:32:39;;;;;;;;;;;17.10;1.00;;;;;;5035502;28;19935;-59
2023/10/20 00:35:08;;;;;;;;;;;17.10;1.00;;;;;;5053461;28;19933;-59
2023/10/20 00:37:37;;;;;;;;;;;17.10;1.00;;;;;;5035599;28;19956;-59
2023/10/20 00:40:07;;;;;;;;;;;17.10;1.00;;;;;;5052432;28;19931;-57
2023/10/20 00:42:35;;;;;;;;;;;17.10;1.00;;;;;;5053388;28;19978;-58
2023/10/20 00:45:02;;;;;;;;;;;17.10;1.00;;;;;;5053269;28;19932;-58
2023/10/20 00:47:29;;;;;;;;;;;17.10;1.00;;;;;;5035439;28;19932;-59
2023/10/20 00:49:57;;;;;;;;;;;17.10;1.00;;;;;;5034054;28;19924;-59
2023/10/20 00:52:24;;;;;;;;;;;17.10;1.00;;;;;;5035077;28;19932;-59
2023/10/20 00:54:52;;;;;;;;;;;17.10;1.00;;;;;;5052875;28;19925;-58
2023/10/20 00:57:19;;;;;;;;;;;17.10;1.00;;;;;;5035254;28;19924;-58
2023/10/20 00:59:46;;;;;;;;;;;17.10;1.00;;;;;;5051848;28;19929;-59
2023/10/20 01:02:12;;;;;;;;;;;17.10;1.00;;;;;;5034785;28;20051;-59
2023/10/20 01:04:39;;;;;;;;;;;17.10;1.00;;;;;;5052973;28;20453;-59
2023/10/20 01:07:06;;;;;;;;;;;17.10;1.00;;;;;;5035025;28;20027;-58
2023/10/20 01:09:33;;;;;;;;;;;17.10;1.00;;;;;;5051841;28;19929;-59
2023/10/20 01:11:59;;;;;;;;;;;17.10;1.00;;;;;;5034790;28;19925;-58
2023/10/20 01:14:26;;;;;;;;;;;17.10;1.00;;;;;;5052951;28;19931;-59
2023/10/20 01:16:53;;;;;;;;;;;17.10;1.00;;;;;;5052529;28;19925;-58
2023/10/20 01:19:20;;;;;;;;;;;17.10;1.00;;;;;;5051561;28;19925;-59
2023/10/20 01:21:47;;;;;;;;;;;17.10;1.00;;;;;;5048872;28;19924;-59
2023/10/20 01:24:14;;;;;;;;;;;17.10;1.00;;;;;;5034362;28;20468;-58
2023/10/20 01:26:43;;;;;;;;;;;17.10;1.00;;;;;;5034876;28;20381;-58
2023/10/20 01:29:12;;;;;;;;;;;17.10;1.00;;;;;;5052054;28;20011;-59
2023/10/20 01:31:39;;;;;;;;;;;17.10;1.00;;;;;;5051822;28;19947;-59
2023/10/20 01:34:06;;;;;;;;;;;17.10;1.00;;;;;;5034296;28;20421;-59
2023/10/20 01:36:33;;;;;;;;;;;17.10;1.00;;;;;;5052455;28;19925;-59
2023/10/20 01:38:59;;;;;;;;;;;17.10;1.00;;;;;;5034505;28;20019;-59
2023/10/20 01:41:26;;;;;;;;;;;17.00;1.00;;;;;;5050992;28;20038;-59
2023/10/20 01:43:53;;;;;;;;;;;17.10;1.00;;;;;;5052127;28;19928;-59
2023/10/20 01:46:20;;;;;;;;;;;17.10;1.00;;;;;;5034521;28;19931;-59
2023/10/20 01:48:47;;;;;;;;;;;17.10;1.00;;;;;;5034308;28;19978;-59
2023/10/20 01:51:15;;;;;;;;;;;17.10;1.00;;;;;;5032929;28;20292;-59
2023/10/20 01:53:42;;;;;;;;;;;17.10;1.00;;;;;;5052101;28;20362;-59
2023/10/20 01:56:10;;;;;;;;;;;17.10;1.00;;;;;;5034267;28;20290;-59
2023/10/20 01:58:37;;;;;;;;;;;17.10;1.00;;;;;;5034298;28;19924;-59
2023/10/20 02:01:03;;;;;;;;;;;17.10;1.00;;;;;;5032989;28;20420;-59
2023/10/20 02:03:30;;;;;;;;;;;17.10;1.00;;;;;;5034098;28;19924;-59
2023/10/20 02:05:57;;;;;;;;;;;17.00;1.00;;;;;;5034162;28;19932;-59
2023/10/20 02:08:24;;;;;;;;;;;17.00;1.00;;;;;;5033729;28;19936;-59
2023/10/20 02:10:51;;;;;;;;;;;17.00;1.00;;;;;;5032808;28;19933;-59
2023/10/20 02:13:17;;;;;;;;;;;17.00;1.00;;;;;;5034130;28;19967;-59
2023/10/20 02:15:48;;;;;;;;;;;17.00;1.00;;;;;;5034271;28;20378;-59
2023/10/20 02:18:15;;;;;;;;;;;17.00;1.00;;;;;;5034296;28;19932;-59
2023/10/20 02:20:43;;;;;;;;;;;17.00;1.00;;;;;;5033105;28;20020;-59
2023/10/20 02:23:11;;;;;;;;;;;17.00;1.00;;;;;;5034035;28;20319;-56
2023/10/20 02:25:37;;;;;;;;;;;17.00;1.00;;;;;;5051989;28;19929;-57
2023/10/20 02:28:04;;;;;;;;;;;17.00;1.00;;;;;;5051805;28;19964;-57
2023/10/20 02:30:32;;;;;;;;;;;17.00;1.00;;;;;;5032794;28;19925;-59
2023/10/20 02:33:00;;;;;;;;;;;17.00;1.00;;;;;;5051598;28;20007;-57
2023/10/20 02:35:27;;;;;;;;;;;17.00;1.00;;;;;;5051854;28;19925;-58
2023/10/20 02:37:54;;;;;;;;;;;17.00;1.00;;;;;;5051764;28;20416;-58
2023/10/20 02:40:20;;;;;;;;;;;17.00;1.00;;;;;;5032755;28;19932;-54
2023/10/20 02:42:47;;;;;;;;;;;17.00;1.00;;;;;;5033665;28;19924;-59
2023/10/20 02:45:14;;;;;;;;;;;17.00;1.00;;;;;;5033987;28;20412;-56
2023/10/20 02:47:41;;;;;;;;;;;17.00;1.00;;;;;;5046089;28;19924;-56
2023/10/20 02:50:08;;;;;;;;;;;17.00;1.00;;;;;;5050456;28;20401;-57
2023/10/20 02:52:35;;;;;;;;;;;17.00;1.00;;;;;;5033973;28;19940;-57
2023/10/20 02:55:02;;;;;;;;;;;17.00;1.00;;;;;;5037502;28;20352;-58
2023/10/20 02:57:29;;;;;;;;;;;17.00;1.00;;;;;;5037759;28;19975;-57
2023/10/20 02:59:56;;;;;;;;;;;17.00;1.00;;;;;;5032954;28;20020;-58
2023/10/20 03:02:23;;;;;;;;;;;17.00;1.00;;;;;;5053560;28;19925;-59
2023/10/20 03:04:55;;;;;;;;;;;16.90;1.00;;;;;;5055750;28;19931;-59
2023/10/20 03:07:27;;;;;;;;;;;17.00;1.00;;;;;;5037296;28;19925;-57
2023/10/20 03:09:54;;;;;;;;;;;17.00;1.00;;;;;;5035920;28;20374;-58
2023/10/20 03:12:21;;;;;;;;;;;17.00;1.00;;;;;;5054651;28;20421;-58
2023/10/20 03:14:48;;;;;;;;;;;17.00;1.00;;;;;;5055104;28;19964;-57
2023/10/20 03:17:16;;;;;;;;;;;16.90;1.00;;;;;;5036738;28;19925;-55
2023/10/20 03:19:43;;;;;;;;;;;17.00;1.00;;;;;;5053878;28;20010;-58
2023/10/20 03:22:12;;;;;;;;;;;17.00;1.00;;;;;;5036718;28;19931;-54
2023/10/20 03:24:40;;;;;;;;;;;17.00;1.00;;;;;;5037076;28;19931;-58
2023/10/20 03:27:07;;;;;;;;;;;16.90;1.00;;;;;;5054831;28;20386;-58
2023/10/20 03:29:34;;;;;;;;;;;17.00;1.00;;;;;;5035058;28;20314;-56
2023/10/20 03:32:01;;;;;;;;;;;16.90;1.00;;;;;;5054685;28;20023;-59
2023/10/20 03:34:31;;;;;;;;;;;17.00;1.00;;;;;;5046679;28;20298;-58
2023/10/20 03:36:59;;;;;;;;;;;16.90;1.00;;;;;;5036643;28;19972;-58
2023/10/20 03:39:27;;;;;;;;;;;16.90;1.00;;;;;;5053407;28;20329;-57
2023/10/20 03:41:54;;;;;;;;;;;16.90;1.00;;;;;;5036671;28;19963;-58
2023/10/20 03:44:21;;;;;;;;;;;16.90;1.00;;;;;;5054190;28;19978;-58
2023/10/20 03:46:49;;;;;;;;;;;16.90;1.00;;;;;;5036638;28;20263;-57
2023/10/20 03:49:16;;;;;;;;;;;16.90;1.00;;;;;;5035508;28;19928;-57
2023/10/20 03:51:49;;;;;;;;;;;16.90;1.00;;;;;;5054061;28;19965;-55
2023/10/20 03:54:17;;;;;;;;;;;16.90;1.00;;;;;;5054039;28;20008;-59
2023/10/20 03:56:43;;;;;;;;;;;16.90;1.00;;;;;;5054317;28;19925;-59
2023/10/20 03:59:11;;;;;;;;;;;16.90;1.00;;;;;;5035452;28;19929;-56
2023/10/20 04:01:40;;;;;;;;;;;16.90;1.00;;;;;;5052435;28;20199;-59
2023/10/20 04:04:09;;;;;;;;;;;16.90;1.00;;;;;;5053551;28;20367;-56
2023/10/20 04:06:36;;;;;;;;;;;16.90;1.00;;;;;;5053675;28;20294;-57
2023/10/20 04:09:10;;;;;;;;;;;16.90;1.00;;;;;;5051041;28;19925;-56
2023/10/20 04:11:38;;;;;;;;;;;16.80;1.00;;;;;;5046985;28;20420;-57
2023/10/20 04:14:08;;;;;;;;;;;16.90;1.00;;;;;;5052190;28;20020;-54
2023/10/20 04:16:42;;;;;;;;;;;16.90;1.00;;;;;;5051832;28;20014;-57
2023/10/20 04:19:09;;;;;;;;;;;16.90;1.00;;;;;;5053036;28;19925;-56
2023/10/20 04:21:38;;;;;;;;;;;16.90;1.00;;;;;;5053697;28;20008;-58
2023/10/20 04:24:09;;;;;;;;;;;16.90;1.00;;;;;;5053494;28;19974;-56
2023/10/20 04:26:37;;;;;;;;;;;16.90;1.00;;;;;;5045515;28;19925;-55
2023/10/20 04:58:54;;;;;;;;;;;16.80;1.00;;;;;;5051718;28;20361;-56
2023/10/20 05:04:17;;;;;;;;;;;16.90;1.00;;;;;;5052961;28;20405;-57
2023/10/20 05:06:45;;;;;;;;;;;16.80;1.00;;;;;;5053436;28;20282;-58
2023/10/20 05:09:15;;;;;;;;;;;16.80;1.00;;;;;;5052839;28;20398;-56
2023/10/20 05:11:41;;;;;;;;;;;16.80;1.00;;;;;;5052954;28;19936;-56
2023/10/20 05:14:08;;;;;;;;;;;16.80;1.00;;;;;;5052583;28;19964;-57
2023/10/20 05:16:35;;;;;;;;;;;16.80;1.00;;;;;;5052081;28;19928;-58
2023/10/20 05:19:05;;;;;;;;;;;16.80;1.00;;;;;;5052781;28;19924;-56
2023/10/20 05:21:33;;;;;;;;;;;16.80;1.00;;;;;;5052615;28;19939;-58
2023/10/20 05:24:03;;;;;;;;;;;16.80;1.00;;;;;;5052703;28;19971;-58
2023/10/20 05:26:31;;;;;;;;;;;16.80;1.00;;;;;;5052667;28;19931;-58
2023/10/20 05:28:58;;;;;;;;;;;16.80;1.00;;;;;;5052620;28;19925;-58
2023/10/20 05:31:26;;;;;;;;;;;16.80;1.00;;;;;;5052366;28;19928;-58
2023/10/20 05:33:53;;;;;;;;;;;16.80;1.00;;;;;;5052446;28;19940;-58
2023/10/20 05:36:20;;;;;;;;;;;16.80;1.00;;;;;;5034600;28;20024;-56
2023/10/20 05:38:47;;;;;;;;;;;16.80;1.00;;;;;;5052409;28;19986;-58
2023/10/20 05:41:13;;;;;;;;;;;16.80;1.00;;;;;;5052295;28;19925;-58
2023/10/20 05:43:41;;;;;;;;;;;16.80;1.00;;;;;;5052384;28;20294;-57
2023/10/20 05:46:17;;;;;;;;;;;16.80;1.00;;;;;;5052444;28;19925;-57
2023/10/20 05:48:45;;;;;;;;;;;16.80;1.00;;;;;;5052220;28;19925;-58
2023/10/20 05:51:13;;;;;;;;;;;16.80;1.00;;;;;;5052266;28;19982;-58
2023/10/20 05:53:39;;;;;;;;;;;16.80;1.00;;;;;;5051984;28;19932;-57
2023/10/20 05:56:06;;;;;;;;;;;16.80;1.00;;;;;;5052272;28;19936;-59
2023/10/20 05:58:37;;;;;;;;;;;16.80;1.00;;;;;;5052124;28;19925;-58
2023/10/20 06:01:05;;;;;;;;;;;16.80;1.00;;;;;;5052210;28;20020;-58
2023/10/20 06:03:32;;;;;;;;;;;16.80;1.00;;;;;;5051915;28;20404;-56
2023/10/20 06:06:00;;;;;;;;;;;16.80;1.00;;;;;;5052146;28;19925;-58
2023/10/20 06:08:30;;;;;;;;;;;16.80;1.00;;;;;;5052037;28;19936;-56
2023/10/20 06:11:02;;;;;;;;;;;16.80;1.00;;;;;;5052160;28;19925;-55
2023/10/20 06:13:30;;;;;;;;;;;16.80;1.00;;;;;;5051828;28;20382;-57
2023/10/20 06:15:57;;;;;;;;;;;16.80;1.00;;;;;;5034367;28;20279;-57
2023/10/20 06:18:24;;;;;;;;;;;16.80;1.00;;;;;;5052067;28;19925;-57
2023/10/20 06:21:03;;;;;;;;;;;16.80;1.00;;;;;;5052241;28;19932;-55
2023/10/20 06:23:30;;;;;;;;;;;16.70;1.00;;;;;;5051834;28;19978;-57
2023/10/20 06:25:57;;;;;;;;;;;16.70;1.00;;;;;;5052152;28;19925;-56
2023/10/20 06:28:24;;;;;;;;;;;16.70;1.00;;;;;;5055417;28;19925;-56
2023/10/20 06:30:51;;;;;;;;;;;16.70;1.00;;;;;;5055720;28;19924;-57
2023/10/20 06:33:18;;;;;;;;;;;16.70;1.00;;;;;;5055496;28;20390;-58
2023/10/20 06:35:52;;;;;;;;;;;16.70;1.00;;;;;;5030364;28;19983;-58
2023/10/20 06:38:20;;;;;;;;;;;16.70;1.00;;;;;;5055766;28;19925;-58
2023/10/20 06:40:47;;;;;;;;;;;16.70;1.00;;;;;;5055693;28;20298;-57
2023/10/20 06:43:16;;;;;;;;;;;16.70;1.00;;;;;;5055491;28;19925;-58
2023/10/20 06:45:43;;;;;;;;;;;16.70;1.00;;;;;;5055577;28;19929;-58
2023/10/20 06:48:10;;;;;;;;;;;16.70;1.00;;;;;;5055714;28;20023;-58
2023/10/20 06:50:37;;;;;;;;;;;16.70;1.00;;;;;;5055232;28;19975;-58
2023/10/20 06:53:04;;;;;;;;;;;16.70;1.00;;;;;;5055173;28;20383;-59
2023/10/20 06:55:30;;;;;;;;;;;16.70;1.00;;;;;;5055484;28;19925;-58
2023/10/20 06:58:17;;;;;;;;;;;16.70;1.00;;;;;;5055377;28;19970;-57
2023/10/20 07:00:44;;;;;;;;;;;16.70;1.00;;;;;;5055101;28;20015;-56
2023/10/20 07:03:14;;;;;;;;;;;16.70;1.00;;;;;;5055238;28;19928;-56
2023/10/20 07:05:42;;;;;;;;;;;16.70;1.00;;;;;;5055232;28;19932;-57
2023/10/20 07:08:08;;;;;;;;;;;16.70;1.00;;;;;;5055146;28;19925;-59
2023/10/20 07:10:37;;;;;;;;;;;16.70;1.00;;;;;;5055055;28;20394;-56
2023/10/20 07:13:08;;;;;;;;;;;16.70;1.00;;;;;;5054999;28;19995;-59
2023/10/20 07:15:34;;;;;;;;;;;16.70;1.00;;;;;;5055102;28;19968;-56
2023/10/20 07:18:02;;;;;;;;;;;16.70;1.00;;;;;;5054273;28;19925;-55
2023/10/20 07:20:33;;;;;;;;;;;16.70;1.00;;;;;;5054302;28;20302;-58
2023/10/20 07:23:00;;;;;;;;;;;16.70;1.00;;;;;;5053507;28;19929;-58
2023/10/20 07:25:27;;;;;;;;;;;16.70;1.00;;;;;;5054549;28;19924;-56
2023/10/20 07:27:54;;;;;;;;;;;16.60;1.00;;;;;;5036114;28;20386;-58
2023/10/20 07:30:23;;;;;;;;;;;16.60;1.00;;;;;;5053285;28;19931;-56
2023/10/20 07:32:51;;;;;;;;;;;16.60;1.00;;;;;;5054158;28;19924;-57
2023/10/20 07:35:18;;;;;;;;;;;16.60;1.00;;;;;;5054023;28;19968;-58
2023/10/20 07:37:44;;;;;;;;;;;16.60;1.00;;;;;;5053742;28;19939;-56
2023/10/20 07:40:11;;;;;;;;;;;16.60;1.00;;;;;;5053338;28;20042;-55
2023/10/20 07:42:42;;;;;;;;;;;16.60;1.00;;;;;;5054735;28;19959;-58
2023/10/20 07:45:10;;;;;;;;;;;16.60;1.00;;;;;;5054409;28;19924;-58
2023/10/20 07:47:37;;;;;;;;;;;16.60;1.00;;;;;;5036517;28;20042;-58
2023/10/20 07:50:06;;;;;;;;;;;16.60;1.00;;;;;;5053947;28;19925;-59
2023/10/20 07:52:32;;;;;;;;;;;16.60;1.00;;;;;;5053898;28;20329;-57
2023/10/20 07:55:01;;;;;;;;;;;16.60;1.00;;;;;;5054072;28;19925;-58
2023/10/20 07:57:28;;;;;;;;;;;16.60;1.00;;;;;;5054281;28;20365;-59
2023/10/20 07:59:55;;;;;;;;;;;16.60;1.00;;;;;;5054192;28;19925;-57
2023/10/20 08:02:23;;;;;;;;;;;16.60;1.00;;;;;;5053857;28;20369;-58
2023/10/20 08:04:50;;;;;;;;;;;16.60;1.00;;;;;;5053958;28;19924;-56
2023/10/20 08:07:18;;;;;;;;;;;16.60;1.00;;;;;;5054107;28;20023;-58
2023/10/20 08:09:46;;;;;;;;;;;16.60;1.00;;;;;;5053815;28;19925;-56
2023/10/20 08:12:13;;;;;;;;;;;16.60;1.00;;;;;;5053848;28;19925;-58
2023/10/20 08:14:40;;;;;;;;;;;16.60;1.00;;;;;;5053848;28;19931;-55
2023/10/20 08:17:07;;;;;;;;;;;16.60;1.00;;;;;;5054038;28;19929;-57
2023/10/20 08:19:35;;;;;;;;;;;16.60;1.00;;;;;;5053492;28;19931;-59
2023/10/20 08:22:01;;;;;;;;;;;16.60;1.00;;;;;;5053917;28;19925;-59
2023/10/20 08:24:28;;;;;;;;;;;16.60;1.00;;;;;;5053678;28;20382;-59
2023/10/20 08:26:55;;;;;;;;;;;16.60;1.00;;;;;;5053700;28;19924;-57
2023/10/20 08:29:22;;;;;;;;;;;16.60;1.00;;;;;;5053641;28;19931;-59
2023/10/20 08:31:48;;;;;;;;;;;16.60;1.00;;;;;;5053662;28;20354;-59
2023/10/20 08:34:15;;;;;;;;;;;16.60;1.00;;;;;;5053343;28;19928;-58
2023/10/20 08:36:42;;;;;;;;;;;16.60;1.00;;;;;;5053300;28;19924;-58
2023/10/20 08:39:19;;;;;;;;;;;16.60;1.00;;;;;;5053293;28;19925;-58
2023/10/20 08:41:46;;;;;;;;;;;16.50;1.00;;;;;;5053482;28;20336;-56
2023/10/20 08:44:14;;;;;;;;;;;16.50;1.00;;;;;;5053198;28;19931;-58
2023/10/20 08:46:41;;;;;;;;;;;16.50;1.00;;;;;;5053294;28;19928;-58
2023/10/20 08:49:08;;;;;;;;;;;16.50;1.00;;;;;;5053116;28;19953;-57
2023/10/20 08:51:35;;;;;;;;;;;16.50;1.00;;;;;;5052373;28;19932;-59
2023/10/20 08:54:02;;;;;;;;;;;16.50;1.00;;;;;;5053054;28;20027;-57
2023/10/20 08:56:29;;;;;;;;;;;16.50;1.00;;;;;;5053228;28;19925;-59
2023/10/20 08:58:56;;;;;;;;;;;16.50;1.00;;;;;;5052825;28;19990;-58
2023/10/20 09:01:22;;;;;;;;;;;16.50;1.00;;;;;;5052940;28;19929;-59
2023/10/20 09:03:50;;;;;;;;;;;16.50;1.00;;;;;;5052771;28;19924;-57
2023/10/20 09:06:17;;;;;;;;;;;16.50;1.00;;;;;;5052990;28;19929;-59
2023/10/20 09:08:49;;;;;;;;;;;16.50;1.00;;;;;;5052839;28;19924;-57
2023/10/20 09:11:25;;;;;;;;;;;16.50;1.00;;;;;;5052865;28;19960;-59
2023/10/20 09:13:52;;;;;;;;;;;16.50;1.00;;;;;;5052605;28;19947;-55
2023/10/20 09:16:18;;;;;;;;;;;16.50;1.00;;;;;;5052901;28;19925;-57
2023/10/20 09:18:49;;;;;;;;;;;16.50;1.00;;;;;;5052485;28;19931;-58
2023/10/20 09:21:17;;;;;;;;;;;16.50;1.00;;;;;;5052731;28;19948;-57
2023/10/20 09:23:58;;;;;;;;;;;16.50;1.00;;;;;;5052376;28;20017;-58
2023/10/20 09:26:29;;;;;;;;;;;16.50;1.00;;;;;;5052698;28;19929;-57
2023/10/20 09:28:56;;;;;;;;;;;16.50;1.00;;;;;;5052589;28;19924;-59
2023/10/20 09:31:25;;;;;;;;;;;16.50;1.00;;;;;;5052543;28;20298;-57
2023/10/20 09:33:51;;;;;;;;;;;16.50;1.00;;;;;;5052219;28;19978;-58
2023/10/20 09:36:18;;;;;;;;;;;16.50;1.00;;;;;;5052548;28;19925;-59
2023/10/20 09:38:52;;;;;;;;;;;16.50;1.00;;;;;;5052189;28;19929;-59
2023/10/20 09:41:23;;;;;;;;;;;16.50;1.00;;;;;;5052309;28;20410;-57
2023/10/20 09:43:52;;;;;;;;;;;16.40;1.00;;;;;;5052145;28;20019;-57
2023/10/20 09:46:19;;;;;;;;;;;16.40;1.00;;;;;;5052298;28;20016;-58
2023/10/20 09:48:47;;;;;;;;;;;16.40;1.00;;;;;;5052483;28;19947;-57
2023/10/20 09:51:15;;;;;;;;;;;16.40;1.00;;;;;;5052084;28;19979;-58
2023/10/20 09:53:42;;;;;;;;;;;16.40;1.00;;;;;;5051824;28;20020;-59
2023/10/20 09:56:10;;;;;;;;;;;16.40;1.00;;;;;;5052609;28;19928;-59
2023/10/20 09:58:36;;;;;;;;;;;16.40;1.00;;;;;;5052266;28;19924;-61
2023/10/20 10:01:05;;;;;;;;;;;16.40;1.00;;;;;;5052217;28;19925;-56
2023/10/20 10:03:42;;;;;;;;;;;16.40;1.00;;;;;;5052388;28;20019;-59
2023/10/20 10:06:19;;;;;;;;;;;16.40;1.00;;;;;;5034487;28;19971;-58
2023/10/20 10:08:45;;;;;;;;;;;16.40;1.00;;;;;;5052065;28;19932;-58
2023/10/20 10:11:19;;;;;;;;;;;16.40;1.00;;;;;;5051963;28;20340;-59
2023/10/20 10:13:51;;;;;;;;;;;16.40;1.00;;;;;;5051796;28;19952;-59
2023/10/20 10:16:19;;;;;;;;;;;16.40;1.00;;;;;;5051953;28;19925;-59
2023/10/20 10:18:46;;;;;;;;;;;16.40;1.00;;;;;;5051731;28;19932;-58
2023/10/20 10:21:26;;;;;;;;;;;16.40;1.00;;;;;;5051961;28;20349;-59
2023/10/20 10:24:13;;;;;;;;;;;16.40;1.00;;;;;;5051612;28;19948;-58
2023/10/20 10:26:49;;;;;;;;;;;16.40;1.00;;;;;;5051731;28;19925;-58
2023/10/20 10:29:16;;;;;;;;;;;16.40;1.00;;;;;;5051672;28;19932;-58
2023/10/20 10:31:43;;;;;;;;;;;16.30;1.00;;;;;;5051738;28;19956;-59
2023/10/20 10:34:28;;;;;;;;;;;16.40;1.00;;;;;;5051584;28;20017;-59
2023/10/20 10:36:57;;;;;;;;;;;16.40;1.00;;;;;;5051655;28;19932;-58
2023/10/20 10:39:27;;;;;;;;;;;16.40;1.00;;;;;;5051649;28;20394;-57
2023/10/20 10:42:00;;;;;;;;;;;16.40;1.00;;;;;;5051909;28;20297;-58
2023/10/20 10:44:30;;;;;;;;;;;16.40;1.00;;;;;;5051433;28;19925;-59
2023/10/20 10:46:57;;;;;;;;;;;16.40;1.00;;;;;;5051790;28;19925;-58
2023/10/20 10:49:24;;;;;;;;;;;16.40;1.00;;;;;;5051315;28;19932;-59
2023/10/20 10:51:52;;;;;;;;;;;16.40;1.00;;;;;;5051655;28;20345;-59
2023/10/20 10:54:19;;;;;;;;;;;16.40;1.00;;;;;;5051552;28;20313;-56
2023/10/20 10:56:46;;;;;;;;;;;16.40;1.00;;;;;;5051576;28;20016;-57
2023/10/20 10:59:12;;;;;;;;;;;16.30;1.00;;;;;;5051307;28;20394;-58
2023/10/20 11:01:39;;;;;;;;;;;16.30;1.00;;;;;;5051651;28;20389;-58
2023/10/20 11:04:08;;;;;;;;;;;16.30;1.00;;;;;;5050934;28;19925;-58
2023/10/20 11:06:37;;;;;;;;;;;16.30;1.00;;;;;;5051570;28;20007;-59
2023/10/20 11:09:10;;;;;;;;;;;16.30;1.00;;;;;;5051320;28;19940;-57
2023/10/20 11:11:39;;;;;;;;;;;16.30;1.00;;;;;;5051495;28;19936;-56
2023/10/20 11:14:06;;;;;;;;;;;16.30;1.00;;;;;;5052239;28;19929;-57
2023/10/20 11:16:38;;;;;;;;;;;16.30;1.00;;;;;;5054870;28;19925;-59
2023/10/20 11:19:05;;;;;;;;;;;16.30;1.00;;;;;;5036792;28;19925;-59
2023/10/20 11:21:42;;;;;;;;;;;16.30;1.00;;;;;;5054864;28;19932;-55
2023/10/20 11:24:09;;;;;;;;;;;16.30;1.00;;;;;;5054634;28;20417;-59
2023/10/20 11:26:36;;;;;;;;;;;16.30;1.00;;;;;;5055014;28;20398;-58
2023/10/20 11:29:08;;;;;;;;;;;16.30;1.00;;;;;;5054578;28;19925;-59
2023/10/20 11:31:35;;;;;;;;;;;16.30;1.00;;;;;;5054750;28;19925;-59
2023/10/20 11:34:02;;;;;;;;;;;16.30;1.00;;;;;;5054529;28;19925;-53
2023/10/20 11:36:28;;;;;;;;;;;16.30;1.00;;;;;;5054684;28;20040;-55
2023/10/20 11:38:55;;;;;;;;;;;16.30;1.00;;;;;;5054455;28;19968;-58
2023/10/20 11:41:22;;;;;;;;;;;16.30;1.00;;;;;;5036664;28;20019;-58
2023/10/20 11:43:49;;;;;;;;;;;16.30;1.00;;;;;;5054119;28;19929;-58
2023/10/20 11:46:16;;;;;;;;;;;16.30;1.00;;;;;;5054612;28;19928;-57
2023/10/20 11:48:42;;;;;;;;;;;16.30;1.00;;;;;;5054376;28;19964;-58
2023/10/20 11:51:09;;;;;;;;;;;16.30;1.00;;;;;;5054583;28;20353;-57
2023/10/20 11:53:40;;;;;;;;;;;16.30;1.00;;;;;;5054190;28;20445;-58
2023/10/20 11:56:06;;;;;;;;;;;16.30;1.00;;;;;;5054288;28;19925;-58
2023/10/20 11:58:33;;;;;;;;;;;16.20;1.00;;;;;;5054179;28;19925;-59
2023/10/20 12:01:00;;;;;;;;;;;16.30;1.00;;;;;;5054053;28;20370;-59
2023/10/20 12:03:27;;;;;;;;;;;16.30;1.00;;;;;;5054158;28;19931;-59
2023/10/20 12:05:55;;;;;;;;;;;16.30;1.00;;;;;;5054178;28;20344;-58
2023/10/20 12:08:23;;;;;;;;;;;16.20;1.00;;;;;;5054125;28;19924;-58
2023/10/20 12:10:50;;;;;;;;;;;16.20;1.00;;;;;;5053769;28;19931;-56
2023/10/20 12:13:18;;;;;;;;;;;16.20;1.00;;;;;;5053875;28;19931;-58
2023/10/20 12:15:44;;;;;;;;;;;16.20;1.00;;;;;;5036020;28;19924;-59
2023/10/20 12:18:11;;;;;;;;;;;16.20;1.00;;;;;;5053777;28;19925;-57
2023/10/20 12:20:38;;;;;;;;;;;16.20;1.00;;;;;;5053739;28;19928;-59
2023/10/20 12:23:05;;;;;;;;;;;16.20;1.00;;;;;;5053678;28;19925;-59
2023/10/20 12:25:33;;;;;;;;;;;16.20;1.00;;;;;;5053615;28;20403;-58
2023/10/20 12:28:00;;;;;;;;;;;16.20;1.00;;;;;;5053816;28;19968;-57
2023/10/20 12:30:27;;;;;;;;;;;16.20;1.00;;;;;;5053769;28;19925;-59
2023/10/20 12:32:54;;;;;;;;;;;16.20;1.00;;;;;;5053433;28;19928;-58
2023/10/20 12:35:21;;;;;;;;;;;16.20;1.00;;;;;;5053590;28;19978;-58
2023/10/20 12:37:48;;;;;;;;;;;16.20;1.00;;;;;;5053600;28;19928;-56
2023/10/20 12:40:15;;;;;;;;;;;16.20;1.00;;;;;;5053361;28;20382;-57
2023/10/20 12:42:43;;;;;;;;;;;16.20;1.00;;;;;;5053289;28;20325;-57
2023/10/20 12:45:10;;;;;;;;;;;16.20;1.00;;;;;;5053278;28;19925;-58
2023/10/20 12:47:37;;;;;;;;;;;16.20;1.00;;;;;;5053432;28;19925;-59
2023/10/20 12:50:06;;;;;;;;;;;16.20;1.00;;;;;;5035372;28;19983;-57
2023/10/20 12:52:33;;;;;;;;;;;16.20;1.00;;;;;;5052853;28;19976;-57
2023/10/20 12:55:00;;;;;;;;;;;16.20;1.00;;;;;;5052985;28;19925;-59
2023/10/20 12:57:29;;;;;;;;;;;16.20;1.00;;;;;;5052675;28;20016;-59
2023/10/20 12:59:56;;;;;;;;;;;16.20;1.00;;;;;;5052715;28;19925;-57
2023/10/20 13:02:23;;;;;;;;;;;16.20;1.00;;;;;;5052802;28;19924;-59
2023/10/20 13:04:49;;;;;;;;;;;16.20;1.00;;;;;;5052873;28;19925;-56
2023/10/20 13:07:16;;;;;;;;;;;16.20;1.00;;;;;;5052868;28;19925;-58
2023/10/20 13:09:43;;;;;;;;;;;16.20;1.00;;;;;;5052894;28;19931;-58
2023/10/20 13:12:10;;;;;;;;;;;16.20;1.00;;;;;;5052560;28;19929;-59
2023/10/20 13:14:37;;;;;;;;;;;16.20;1.00;;;;;;5052977;28;19932;-59
2023/10/20 13:17:04;;;;;;;;;;;16.20;1.00;;;;;;5052677;28;19932;-57
2023/10/20 13:19:32;;;;;;;;;;;16.10;1.00;;;;;;5052302;28;19971;-59
2023/10/20 13:21:59;;;;;;;;;;;16.20;1.00;;;;;;5052758;28;19968;-57
2023/10/20 13:24:26;;;;;;;;;;;16.20;1.00;;;;;;5052374;28;19925;-59
2023/10/20 13:26:53;;;;;;;;;;;16.10;1.00;;;;;;5052623;28;19924;-59
2023/10/20 13:29:20;;;;;;;;;;;16.10;1.00;;;;;;5394016;22;19932;-57
2023/10/20 13:31:47;;;;;;;;;;;16.10;1.00;;;;;;5072288;28;19986;-55
2023/10/20 13:34:14;;;;;;;;;;;16.10;1.00;;;;;;5072122;28;19932;-58
2023/10/20 13:36:41;;;;;;;;;;;16.10;1.00;;;;;;5053967;28;20015;-59
2023/10/20 13:39:07;;;;;;;;;;;16.10;1.00;;;;;;5072086;28;19950;-57
2023/10/20 13:41:37;;;;;;;;;;;16.10;1.00;;;;;;5072423;28;20358;-57
2023/10/20 13:44:05;;;;;;;;;;;16.10;1.00;;;;;;5067929;28;19962;-55
2023/10/20 13:46:32;;;;;;;;;;;16.10;1.00;;;;;;5061643;28;19951;-56
2023/10/20 13:48:59;;;;;;;;;;;16.10;1.00;;;;;;5063297;28;19928;-56
2023/10/20 13:51:25;;;;;;;;;;;16.10;1.00;;;;;;5066401;28;19931;-59
2023/10/20 13:53:52;;;;;;;;;;;16.10;1.00;;;;;;5050832;28;20297;-57
2023/10/20 13:56:19;;;;;;;;;;;16.10;1.00;;;;;;5069869;28;20289;-59
2023/10/20 13:58:46;;;;;;;;;;;16.10;1.00;;;;;;5069813;28;19925;-59
2023/10/20 14:01:12;;;;;;;;;;;16.10;1.00;;;;;;5258053;22;20770;-56
2023/10/20 14:03:39;;;;;;;;;;;16.10;1.00;;;;;;5055382;28;20401;-57
2023/10/20 14:06:06;;;;;;;;;;;16.10;1.00;;;;;;5054436;28;20309;-58
2023/10/20 14:08:34;;;;;;;;;;;16.10;1.00;;;;;;5043848;28;20039;-59
2023/10/20 14:11:04;;;;;;;;;;;16.10;1.00;;;;;;5026339;28;19925;-59
2023/10/20 14:13:31;;;;;;;;;;;16.10;1.00;;;;;;5024779;28;20019;-57
2023/10/20 14:15:58;;;;;;;;;;;16.10;1.00;;;;;;5026692;28;20446;-58
2023/10/20 14:18:24;;;;;;;;;;;16.10;1.00;;;;;;5031319;28;19929;-57
2023/10/20 14:20:51;;;;;;;;;;;16.10;1.00;;;;;;5031897;28;20371;-56
2023/10/20 14:23:19;;;;;;;;;;;16.10;1.00;;;;;;5031014;28;20422;-59
2023/10/20 14:25:46;;;;;;;;;;;16.10;1.00;;;;;;5031991;28;19932;-59
2023/10/20 14:28:13;;;;;;;;;;;16.00;1.00;;;;;;5032059;28;19925;-59
2023/10/20 14:30:39;;;;;;;;;;;16.10;1.00;;;;;;5031756;28;20402;-59
2023/10/20 14:33:06;;;;;;;;;;;16.10;1.00;;;;;;5128244;22;20351;-55
2023/10/20 14:35:35;;;;;;;;;;;16.10;1.00;;;;;;5049150;28;19924;-58
2023/10/20 14:38:01;;;;;;;;;;;16.10;1.00;;;;;;5041512;28;19925;-58
2023/10/20 14:40:28;;;;;;;;;;;16.00;1.00;;;;;;5040648;28;20469;-58
2023/10/20 14:42:55;;;;;;;;;;;16.00;1.00;;;;;;5030176;28;20013;-59
2023/10/20 14:45:21;;;;;;;;;;;16.00;1.00;;;;;;5030270;28;19925;-55
2023/10/20 14:47:49;;;;;;;;;;;16.00;1.00;;;;;;5026053;28;20015;-58
2023/10/20 14:50:16;;;;;;;;;;;16.00;1.00;;;;;;5035008;28;19972;-58
2023/10/20 14:52:43;;;;;;;;;;;16.00;1.00;;;;;;5046327;28;19936;-56
2023/10/20 14:55:10;;;;;;;;;;;16.00;1.00;;;;;;5055280;28;19931;-56
2023/10/20 14:57:36;;;;;;;;;;;16.00;1.00;;;;;;5055641;28;19924;-54
2023/10/20 15:00:09;;;;;;;;;;;16.00;1.00;;;;;;5032324;28;19931;-58
2023/10/20 15:02:38;;;;;;;;;;;16.00;1.00;;;;;;5037560;28;19925;-58
2023/10/20 15:05:05;;;;;;;;;;;16.00;1.00;;;;;;5045844;28;19932;-58
2023/10/20 15:07:32;;;;;;;;;;;16.10;1.00;;;;;;5055321;28;20395;-60